Portada
METAR-TAF:

METAR-TAF

Aeroports :

Santa Caterina, Egipte

latitud: 28-41-07N, longitud: 034-03-45E, altitud: 1331 m

METAR: manca

Hora: 13:44 (11:44 UTC)

Pronòstic

L'informe es va fer fa 44 minuts, a les 11:00 UTC
Pronòstic vàlid del 09 a les 12 UTC al 10 a les 18 UTC
Vent 13 kt del Nord
Visibilitat 10 km o més
sense núvols per sota de 1500 mi sense presència de cumulonimbus.
Evolucionant progressivament
l' 09 a les 18 UTC al 09 a les 20 UTC
Vent 3 kt amb direcció variable
Evolucionant progressivament
l' 10 a les 07 UTC al 10 a les 09 UTC
Vent 12 kt del Nord/Nord-Oest

TAF: HESC 091100Z 0912/1018 36013KT CAVOK BECMG 0918/0920 VRB03KT BECMG 1007/1009 34012KT

Observacions i pronòstics meteorològics de més de 4000 aeroports (METAR i TAF).

Les estacions disponibles són els punts grocs i vermells al mapa.

Posi el ratolí al punt desitjat per veure el nom de l'estació.

Feu clic per veure les observacions i els pronòstics meteorològics.

Per canviar el mapa: feu clic els botons verds amb una creu de color negre per apropar; al botó verd amb un guió per allunyar la imatge; o en les fletxes verdes per a mapes adjacents.


METAR-TAF: